createdAt,value
2018-05-12T00:00:24.459Z,13.34
2018-05-12T00:02:52.935Z,13.34
2018-05-12T00:05:21.340Z,13.29
2018-05-12T00:07:49.811Z,13.07
2018-05-12T00:10:18.296Z,13.12
2018-05-12T00:12:46.746Z,13.14
2018-05-12T00:15:15.164Z,13.25
2018-05-12T00:17:43.791Z,13.10
2018-05-12T00:20:12.213Z,13.17
2018-05-12T00:22:40.611Z,13.02
2018-05-12T00:25:09.007Z,12.93
2018-05-12T00:27:37.440Z,12.81
2018-05-12T00:30:06.198Z,12.77
2018-05-12T00:32:35.583Z,12.69
2018-05-12T00:35:03.992Z,12.63
2018-05-12T00:37:32.415Z,12.59
2018-05-12T00:40:00.831Z,12.62
2018-05-12T00:42:29.377Z,12.55
2018-05-12T00:44:57.784Z,12.53
2018-05-12T00:47:26.264Z,12.50
2018-05-12T00:49:54.707Z,12.92
2018-05-12T00:52:23.121Z,12.77
2018-05-12T00:54:51.560Z,12.85
2018-05-12T00:57:19.983Z,12.84
2018-05-12T00:59:48.396Z,12.71
2018-05-12T01:02:16.804Z,12.61
2018-05-12T01:04:47.335Z,12.69
2018-05-12T01:07:15.751Z,12.73
2018-05-12T01:09:44.183Z,12.80
2018-05-12T01:12:12.620Z,12.82
2018-05-12T01:14:41.055Z,12.84
2018-05-12T01:17:11.654Z,12.91
2018-05-12T01:19:42.176Z,12.98
2018-05-12T01:22:10.603Z,12.98
2018-05-12T01:24:39.024Z,12.97
2018-05-12T01:27:07.480Z,13.04
2018-05-12T01:29:35.898Z,13.00
2018-05-12T01:32:04.338Z,13.04
2018-05-12T01:34:33.147Z,13.03
2018-05-12T01:37:03.620Z,13.06
2018-05-12T01:39:32.077Z,13.06
2018-05-12T01:42:00.515Z,12.87
2018-05-12T01:44:28.935Z,12.98
2018-05-12T01:46:57.386Z,12.99
2018-05-12T01:49:25.834Z,13.09
2018-05-12T01:51:54.262Z,12.91
2018-05-12T01:54:24.743Z,12.76
2018-05-12T01:56:53.149Z,12.59
2018-05-12T01:59:21.577Z,12.42
2018-05-12T02:01:49.983Z,12.26
2018-05-12T02:04:18.388Z,12.19
2018-05-12T02:06:46.836Z,12.11
2018-05-12T02:09:15.258Z,12.05
2018-05-12T02:11:43.909Z,11.98
2018-05-12T02:14:12.316Z,11.97
2018-05-12T02:16:40.732Z,11.92
2018-05-12T02:19:09.151Z,11.97
2018-05-12T02:21:37.585Z,11.92
2018-05-12T02:24:06.966Z,11.87
2018-05-12T02:26:35.339Z,11.93
2018-05-12T02:29:03.755Z,11.94
2018-05-12T02:31:32.186Z,11.91
2018-05-12T02:34:00.598Z,11.89
2018-05-12T02:36:28.989Z,11.81
2018-05-12T02:38:57.376Z,11.77
2018-05-12T02:41:25.765Z,11.80
2018-05-12T02:43:54.199Z,11.77
2018-05-12T02:46:22.633Z,11.76
2018-05-12T02:48:51.103Z,11.73
2018-05-12T02:51:19.506Z,11.74
2018-05-12T02:53:50.479Z,12.18
2018-05-12T02:56:20.929Z,12.20
2018-05-12T02:58:51.483Z,12.13
2018-05-12T03:01:19.891Z,11.96
2018-05-12T03:03:48.295Z,11.81
2018-05-12T03:06:16.721Z,11.70
2018-05-12T03:08:45.133Z,11.65
2018-05-12T03:11:13.931Z,11.61
2018-05-12T03:13:42.376Z,11.43
2018-05-12T03:16:10.783Z,11.22
2018-05-12T03:18:39.210Z,11.12
2018-05-12T03:21:08.067Z,11.18
2018-05-12T03:23:38.063Z,11.31
2018-05-12T03:26:06.478Z,11.50
2018-05-12T03:28:34.937Z,11.38
2018-05-12T03:31:03.358Z,11.27
2018-05-12T03:33:31.771Z,11.19
2018-05-12T03:36:00.244Z,11.15
2018-05-12T03:38:30.667Z,11.14
2018-05-12T03:40:59.092Z,11.19
2018-05-12T03:43:27.535Z,11.18
2018-05-12T03:45:56.360Z,11.16
2018-05-12T03:48:24.786Z,11.12
2018-05-12T03:50:55.358Z,11.16
2018-05-12T03:53:23.731Z,11.18
2018-05-12T03:55:52.732Z,11.19
2018-05-12T03:58:21.144Z,11.21
2018-05-12T04:00:49.566Z,11.27
2018-05-12T04:03:18.268Z,11.35
2018-05-12T04:05:52.882Z,11.43
2018-05-12T04:08:29.509Z,11.56
2018-05-12T04:11:03.980Z,11.67
2018-05-12T04:13:32.430Z,11.64
2018-05-12T04:16:00.833Z,11.67
2018-05-12T04:18:30.092Z,11.70
2018-05-12T04:20:58.633Z,11.72
2018-05-12T04:23:27.010Z,11.67
2018-05-12T04:25:55.899Z,11.86
2018-05-12T04:28:24.302Z,11.83
2018-05-12T04:30:52.730Z,11.83
2018-05-12T04:33:23.259Z,11.84
2018-05-12T04:35:51.663Z,12.04
2018-05-12T04:38:20.061Z,12.32
2018-05-12T04:40:48.519Z,12.33
2018-05-12T04:43:16.952Z,12.12
2018-05-12T04:45:47.658Z,11.90
2018-05-12T04:48:16.413Z,11.78
2018-05-12T04:50:44.809Z,11.74
2018-05-12T04:53:13.217Z,11.84
2018-05-12T04:55:43.780Z,11.99
2018-05-12T04:58:13.943Z,11.98
2018-05-12T05:00:42.804Z,11.91
2018-05-12T05:03:11.244Z,12.16
2018-05-12T05:05:39.647Z,12.20
2018-05-12T05:08:08.167Z,12.32
2018-05-12T05:10:36.528Z,12.50
2018-05-12T05:13:04.983Z,12.41
2018-05-12T05:15:33.402Z,12.60
2018-05-12T05:18:03.927Z,12.81
2018-05-12T05:20:32.348Z,13.09
2018-05-12T05:23:00.769Z,13.38
2018-05-12T05:25:29.236Z,13.59
2018-05-12T05:27:57.691Z,13.91
2018-05-12T05:30:26.047Z,14.26
2018-05-12T05:32:54.487Z,14.58
2018-05-12T05:35:22.887Z,14.86
2018-05-12T05:37:51.650Z,15.03
2018-05-12T05:40:20.043Z,15.27
2018-05-12T05:42:48.478Z,15.62
2018-05-12T05:45:16.938Z,15.80
2018-05-12T05:47:45.327Z,15.89
2018-05-12T05:50:14.142Z,16.19
2018-05-12T05:52:42.555Z,16.65
2018-05-12T05:55:10.963Z,16.89
2018-05-12T05:57:39.417Z,16.90
2018-05-12T06:00:07.825Z,17.07
2018-05-12T06:02:36.299Z,17.30
2018-05-12T06:05:04.712Z,17.60
2018-05-12T06:07:33.131Z,17.78
2018-05-12T06:10:02.587Z,18.24
2018-05-12T06:12:31.083Z,18.45
2018-05-12T06:14:59.548Z,18.67
2018-05-12T06:17:27.967Z,18.90
2018-05-12T06:19:56.542Z,19.36
2018-05-12T06:22:24.932Z,19.54
2018-05-12T06:24:53.363Z,19.76
2018-05-12T06:27:22.944Z,19.47
2018-05-12T06:29:51.386Z,19.87
2018-05-12T06:32:19.816Z,20.28
2018-05-12T06:34:49.160Z,20.01
2018-05-12T06:37:17.636Z,20.39
2018-05-12T06:39:46.110Z,20.58
2018-05-12T06:42:14.894Z,20.87
2018-05-12T06:44:43.275Z,20.84
2018-05-12T06:47:11.984Z,21.18
2018-05-12T06:49:40.415Z,21.48
2018-05-12T06:52:08.828Z,21.88
2018-05-12T06:54:38.219Z,22.38
2018-05-12T06:57:06.643Z,22.86
2018-05-12T06:59:35.094Z,23.63
2018-05-12T07:02:03.903Z,23.76
2018-05-12T07:04:32.346Z,24.35
2018-05-12T07:07:00.833Z,24.67
2018-05-12T07:09:29.284Z,24.92
2018-05-12T07:11:57.702Z,24.85
2018-05-12T07:14:26.140Z,24.86
2018-05-12T07:16:55.563Z,25.07
2018-05-12T07:19:24.982Z,25.53
2018-05-12T07:21:53.360Z,25.91
2018-05-12T07:24:21.822Z,26.35
2018-05-12T07:26:50.272Z,26.38
2018-05-12T07:29:18.679Z,26.59
2018-05-12T07:31:47.056Z,26.86
2018-05-12T07:34:15.501Z,26.72
2018-05-12T07:36:43.896Z,27.16
2018-05-12T07:39:12.316Z,27.00
2018-05-12T07:41:40.771Z,27.44
2018-05-12T07:44:09.232Z,27.62
2018-05-12T07:46:37.707Z,27.59
2018-05-12T07:49:07.108Z,27.50
2018-05-12T07:51:35.638Z,27.88
2018-05-12T07:54:04.899Z,28.60
2018-05-12T07:56:33.291Z,28.23
2018-05-12T07:59:01.797Z,28.03
2018-05-12T08:01:30.208Z,28.35
2018-05-12T08:04:00.547Z,28.65
2018-05-12T08:06:28.923Z,28.86
2018-05-12T08:08:57.356Z,29.02
2018-05-12T08:11:25.812Z,29.22
2018-05-12T08:13:54.205Z,29.28
2018-05-12T08:16:22.614Z,29.27
2018-05-12T08:18:51.225Z,29.50
2018-05-12T08:21:19.667Z,29.80
2018-05-12T08:23:48.023Z,29.92
2018-05-12T08:26:16.735Z,30.02
2018-05-12T08:28:45.101Z,30.03
2018-05-12T08:31:14.525Z,29.80
2018-05-12T08:33:43.003Z,30.38
2018-05-12T08:36:12.223Z,30.68
2018-05-12T08:38:41.004Z,30.13
2018-05-12T08:41:10.327Z,30.32
2018-05-12T08:43:38.738Z,30.72
2018-05-12T08:46:07.213Z,30.84
2018-05-12T08:48:35.975Z,30.21
2018-05-12T08:51:04.460Z,29.42
2018-05-12T08:53:32.895Z,29.60
2018-05-12T08:56:01.692Z,29.76
2018-05-12T08:58:30.151Z,29.80
2018-05-12T09:00:59.885Z,30.61
2018-05-12T09:03:28.267Z,31.19
2018-05-12T09:05:56.723Z,31.39
2018-05-12T09:08:25.203Z,31.77
2018-05-12T09:10:53.596Z,32.53
2018-05-12T09:13:22.076Z,32.09
2018-05-12T09:15:50.498Z,32.61
2018-05-12T09:18:18.899Z,33.20
2018-05-12T09:20:47.354Z,33.60
2018-05-12T09:23:15.795Z,32.29
2018-05-12T09:25:45.158Z,31.39
2018-05-12T09:28:13.967Z,31.31
2018-05-12T09:30:42.323Z,31.18
2018-05-12T09:33:10.767Z,32.29
2018-05-12T09:35:39.746Z,32.01
2018-05-12T09:38:08.152Z,31.98
2018-05-12T09:40:36.596Z,31.26
2018-05-12T09:43:05.037Z,30.29
2018-05-12T09:45:33.508Z,30.18
2018-05-12T09:48:01.911Z,30.17
2018-05-12T09:50:30.418Z,29.56
2018-05-12T09:53:00.421Z,29.59
2018-05-12T09:55:30.381Z,28.55
2018-05-12T09:57:58.819Z,28.48
2018-05-12T10:00:27.280Z,28.67
2018-05-12T10:02:57.457Z,29.43
2018-05-12T10:05:29.801Z,29.08
2018-05-12T10:07:58.316Z,28.08
2018-05-12T10:10:26.714Z,28.37
2018-05-12T10:12:55.222Z,29.18
2018-05-12T10:15:23.731Z,29.91
2018-05-12T10:17:53.871Z,30.05
2018-05-12T10:20:22.295Z,30.16
2018-05-12T10:22:50.858Z,30.06
2018-05-12T10:25:20.830Z,29.77
2018-05-12T10:27:49.263Z,28.82
2018-05-12T10:30:19.604Z,27.76
2018-05-12T10:32:48.031Z,27.68
2018-05-12T10:35:17.900Z,27.73
2018-05-12T10:37:46.584Z,28.28
2018-05-12T10:40:15.010Z,28.40
2018-05-12T10:42:43.428Z,28.47
2018-05-12T10:45:11.864Z,28.31
2018-05-12T10:47:43.457Z,28.00
2018-05-12T10:50:11.912Z,27.53
2018-05-12T10:52:41.882Z,27.84
2018-05-12T10:55:11.796Z,27.84
2018-05-12T10:57:41.753Z,27.57
2018-05-12T11:00:10.146Z,27.47
2018-05-12T11:02:40.215Z,27.35
2018-05-12T11:05:12.177Z,26.47
2018-05-12T11:07:40.639Z,26.44
2018-05-12T11:10:09.092Z,26.09
2018-05-12T11:12:38.978Z,26.33
2018-05-12T11:15:07.421Z,26.32
2018-05-12T11:17:37.424Z,26.67
2018-05-12T11:20:05.848Z,26.91
2018-05-12T11:22:34.295Z,26.64
2018-05-12T11:25:02.764Z,26.53
2018-05-12T11:27:31.237Z,26.41
2018-05-12T11:29:59.693Z,26.17
2018-05-12T11:32:28.128Z,26.17
2018-05-12T11:34:58.669Z,26.06
2018-05-12T11:37:27.121Z,26.01
2018-05-12T11:39:57.253Z,25.78
2018-05-12T11:42:27.041Z,26.01
2018-05-12T11:44:55.508Z,26.37
2018-05-12T11:47:24.000Z,26.10
2018-05-12T11:49:52.415Z,25.92
2018-05-12T11:52:22.850Z,25.39
2018-05-12T11:54:51.302Z,25.29
2018-05-12T11:57:23.722Z,25.45
2018-05-12T11:59:52.179Z,25.49
2018-05-12T12:02:20.591Z,25.65
2018-05-12T12:04:49.036Z,25.45
2018-05-12T12:07:17.536Z,24.85
2018-05-12T12:09:45.960Z,24.72
2018-05-12T12:12:14.685Z,24.69
2018-05-12T12:14:43.116Z,25.00
2018-05-12T12:17:13.006Z,25.31
2018-05-12T12:19:41.447Z,25.06
2018-05-12T12:22:09.862Z,25.14
2018-05-12T12:24:38.329Z,25.30
2018-05-12T12:27:08.365Z,25.32
2018-05-12T12:29:36.787Z,25.39
2018-05-12T12:32:06.662Z,25.30
2018-05-12T12:34:35.103Z,25.09
2018-05-12T12:37:03.580Z,25.33
2018-05-12T12:39:32.003Z,24.91
2018-05-12T12:42:00.708Z,24.83
2018-05-12T12:44:29.116Z,25.06
2018-05-12T12:46:57.543Z,25.05
2018-05-12T12:49:25.988Z,25.08
2018-05-12T12:51:54.435Z,25.30
2018-05-12T12:54:22.864Z,25.27
2018-05-12T12:56:51.276Z,25.30
2018-05-12T12:59:20.089Z,25.16
2018-05-12T13:01:48.544Z,25.21
2018-05-12T13:04:16.982Z,25.19
2018-05-12T13:06:45.452Z,25.30
2018-05-12T13:09:17.578Z,25.09
2018-05-12T13:11:46.088Z,24.97
2018-05-12T13:14:14.498Z,24.85
2018-05-12T13:16:43.089Z,24.76
2018-05-12T13:19:13.058Z,24.85
2018-05-12T13:21:43.780Z,24.98
2018-05-12T13:24:12.207Z,25.07
2018-05-12T13:26:40.623Z,25.09
2018-05-12T13:29:09.059Z,24.86
2018-05-12T13:31:39.028Z,24.79
2018-05-12T13:34:09.184Z,24.90
2018-05-12T13:36:37.624Z,24.82
2018-05-12T13:39:06.047Z,24.91
2018-05-12T13:41:34.502Z,24.59
2018-05-12T13:44:02.924Z,24.81
2018-05-12T13:46:31.379Z,24.96
2018-05-12T13:48:59.831Z,24.92
2018-05-12T13:51:28.621Z,24.91
2018-05-12T13:53:57.047Z,24.95
2018-05-12T13:56:25.492Z,25.10
2018-05-12T13:58:53.967Z,25.27
2018-05-12T14:01:22.379Z,25.30
2018-05-12T14:03:50.813Z,25.32
2018-05-12T14:06:19.237Z,25.42
2018-05-12T14:08:47.646Z,25.29
2018-05-12T14:11:16.123Z,25.41
2018-05-12T14:13:44.619Z,25.45
2018-05-12T14:16:13.114Z,25.81
2018-05-12T14:18:43.022Z,26.06
2018-05-12T14:21:13.043Z,25.80
2018-05-12T14:23:41.836Z,25.32
2018-05-12T14:26:10.272Z,25.02
2018-05-12T14:28:38.682Z,24.96
2018-05-12T14:31:07.192Z,24.89
2018-05-12T14:33:35.604Z,24.96
2018-05-12T14:36:08.123Z,24.72
2018-05-12T14:38:40.194Z,24.67
2018-05-12T14:41:08.615Z,24.83
2018-05-12T14:43:38.632Z,24.92
2018-05-12T14:46:07.091Z,24.71
2018-05-12T14:48:35.551Z,24.79
2018-05-12T14:51:03.999Z,24.91
2018-05-12T14:53:32.408Z,25.15
2018-05-12T14:56:01.148Z,25.18
2018-05-12T14:58:31.659Z,25.16
2018-05-12T15:01:00.142Z,25.18
2018-05-12T15:03:32.371Z,24.81
2018-05-12T15:06:00.780Z,24.61
2018-05-12T15:08:29.201Z,24.52
2018-05-12T15:10:57.636Z,24.53
2018-05-12T15:13:26.201Z,24.44
2018-05-12T15:15:56.748Z,24.27
2018-05-12T15:18:27.156Z,24.30
2018-05-12T15:20:55.595Z,24.36
2018-05-12T15:23:24.012Z,24.33
2018-05-12T15:25:52.782Z,24.41
2018-05-12T15:28:21.247Z,24.46
2018-05-12T15:30:52.412Z,24.45
2018-05-12T15:33:20.854Z,24.56
2018-05-12T15:35:51.348Z,24.60
2018-05-12T15:38:19.730Z,24.61
2018-05-12T15:40:48.189Z,24.53
2018-05-12T15:43:15.709Z,24.48
2018-05-12T15:45:43.575Z,24.43
2018-05-12T15:48:10.929Z,24.26
2018-05-12T15:50:38.281Z,24.26
2018-05-12T15:53:05.716Z,24.34
2018-05-12T15:55:33.044Z,24.32
2018-05-12T15:58:01.828Z,24.15
2018-05-12T16:00:29.984Z,24.15
2018-05-12T16:02:57.363Z,24.10
2018-05-12T16:05:24.705Z,24.25
2018-05-12T16:07:52.048Z,24.57
2018-05-12T16:10:19.254Z,24.48
2018-05-12T16:12:47.643Z,24.35
2018-05-12T16:15:14.994Z,24.46
2018-05-12T16:17:43.385Z,24.18
2018-05-12T16:20:11.065Z,24.27
2018-05-12T16:22:39.507Z,24.22
2018-05-12T16:25:06.854Z,24.40
2018-05-12T16:27:35.244Z,24.28
2018-05-12T16:30:03.673Z,24.13
2018-05-12T16:32:31.097Z,24.08
2018-05-12T16:34:59.492Z,23.94
2018-05-12T16:37:30.332Z,23.89
2018-05-12T16:39:58.738Z,23.69
2018-05-12T16:42:27.172Z,23.79
2018-05-12T16:44:55.625Z,23.70
2018-05-12T16:47:22.981Z,23.76
2018-05-12T16:49:51.408Z,23.79
2018-05-12T16:52:19.933Z,23.71
2018-05-12T16:54:48.367Z,23.86
2018-05-12T16:57:17.506Z,23.84
2018-05-12T16:59:45.955Z,23.83
2018-05-12T17:02:13.322Z,23.66
2018-05-12T17:04:43.541Z,23.52
2018-05-12T17:07:15.592Z,23.52
2018-05-12T17:09:44.043Z,23.40
2018-05-12T17:12:12.556Z,23.38
2018-05-12T17:14:41.023Z,23.27
2018-05-12T17:17:09.450Z,23.31
2018-05-12T17:19:38.088Z,23.41
2018-05-12T17:22:06.503Z,23.40
2018-05-12T17:24:34.907Z,23.40
2018-05-12T17:27:03.367Z,23.38
2018-05-12T17:29:31.799Z,23.41
2018-05-12T17:32:00.251Z,23.22
2018-05-12T17:34:28.656Z,23.30
2018-05-12T17:36:58.192Z,22.97
2018-05-12T17:39:26.653Z,23.15
2018-05-12T17:41:55.087Z,23.13
2018-05-12T17:44:24.647Z,23.01
2018-05-12T17:46:54.299Z,22.90
2018-05-12T17:49:22.744Z,22.86
2018-05-12T17:51:51.186Z,22.79
2018-05-12T17:54:19.651Z,22.67
2018-05-12T17:56:48.181Z,22.53
2018-05-12T17:59:18.144Z,22.51
2018-05-12T18:01:47.982Z,22.38
2018-05-12T18:04:16.414Z,22.43
2018-05-12T18:06:46.427Z,22.35
2018-05-12T18:09:15.076Z,22.25
2018-05-12T18:11:43.450Z,22.21
2018-05-12T18:14:11.940Z,22.25
2018-05-12T18:16:40.352Z,22.10
2018-05-12T18:19:08.769Z,22.12
2018-05-12T18:21:37.212Z,22.07
2018-05-12T18:24:07.154Z,22.07
2018-05-12T18:26:35.632Z,21.97
2018-05-12T18:29:06.188Z,21.84
2018-05-12T18:31:34.610Z,21.75
2018-05-12T18:34:03.068Z,21.73
2018-05-12T18:36:31.863Z,21.65
2018-05-12T18:39:00.358Z,21.60
2018-05-12T18:41:30.835Z,21.57
2018-05-12T18:44:00.593Z,21.57
2018-05-12T18:46:31.239Z,21.57
2018-05-12T18:48:59.712Z,21.52
2018-05-12T18:51:30.236Z,21.59
2018-05-12T18:53:58.631Z,21.63
2018-05-12T18:56:27.052Z,21.49
2018-05-12T18:58:55.436Z,21.53
2018-05-12T19:01:23.804Z,21.48
2018-05-12T19:03:53.723Z,21.35
2018-05-12T19:06:22.156Z,21.24
2018-05-12T19:08:50.486Z,21.17
2018-05-12T19:11:18.915Z,21.12
2018-05-12T19:13:47.289Z,21.18
2018-05-12T19:16:15.641Z,21.11
2018-05-12T19:18:44.393Z,20.86
2018-05-12T19:21:12.776Z,20.75
2018-05-12T19:23:41.171Z,20.83
2018-05-12T19:26:09.591Z,21.00
2018-05-12T19:28:38.026Z,20.93
2018-05-12T19:31:08.955Z,20.72
2018-05-12T19:33:37.331Z,20.70
2018-05-12T19:36:05.719Z,20.80
2018-05-12T19:38:34.179Z,20.83
2018-05-12T19:41:02.548Z,20.89
2018-05-12T19:43:30.903Z,20.86
2018-05-12T19:46:01.665Z,20.65
2018-05-12T19:48:30.047Z,20.65
2018-05-12T19:50:58.423Z,20.53
2018-05-12T19:53:26.804Z,20.52
2018-05-12T19:55:55.163Z,20.37
2018-05-12T19:58:23.887Z,20.25
2018-05-12T20:00:52.295Z,19.92
2018-05-12T20:03:20.614Z,19.88
2018-05-12T20:05:49.311Z,19.86
2018-05-12T20:08:17.680Z,19.77
2018-05-12T20:10:46.052Z,19.74
2018-05-12T20:13:14.489Z,19.75
2018-05-12T20:15:42.887Z,19.75
2018-05-12T20:18:12.235Z,19.67
2018-05-12T20:20:40.620Z,19.65
2018-05-12T20:23:08.901Z,19.71
2018-05-12T20:25:37.365Z,19.60
2018-05-12T20:28:05.664Z,19.59
2018-05-12T20:30:34.428Z,19.53
2018-05-12T20:33:02.769Z,19.52
2018-05-12T20:35:31.184Z,19.56
2018-05-12T20:37:59.595Z,19.57
2018-05-12T20:40:28.037Z,19.50
2018-05-12T20:42:56.495Z,19.76
2018-05-12T20:45:24.972Z,19.64
2018-05-12T20:47:55.612Z,19.56
2018-05-12T20:50:24.001Z,19.35
2018-05-12T20:52:52.400Z,19.26
2018-05-12T20:55:20.767Z,19.38
2018-05-12T20:57:51.254Z,19.29
2018-05-12T21:00:19.606Z,19.20
2018-05-12T21:02:48.368Z,19.17
2018-05-12T21:05:16.741Z,19.11
2018-05-12T21:07:45.100Z,19.20
2018-05-12T21:10:13.517Z,19.06
2018-05-12T21:12:41.897Z,18.95
2018-05-12T21:15:10.640Z,18.90
2018-05-12T21:17:39.056Z,18.84
2018-05-12T21:20:07.435Z,19.09
2018-05-12T21:22:36.180Z,19.25
2018-05-12T21:25:04.636Z,19.05
2018-05-12T21:27:33.007Z,18.93
2018-05-12T21:30:01.477Z,18.84
2018-05-12T21:32:29.851Z,18.77
2018-05-12T21:34:58.709Z,18.74
2018-05-12T21:37:27.223Z,18.69
2018-05-12T21:39:57.105Z,18.59
2018-05-12T21:42:27.028Z,18.59
2018-05-12T21:44:55.411Z,18.68
2018-05-12T21:47:25.277Z,18.53
2018-05-12T21:49:53.689Z,18.47
2018-05-12T21:52:22.052Z,18.44
2018-05-12T21:54:50.439Z,18.47
2018-05-12T21:57:20.614Z,18.49
2018-05-12T21:59:48.961Z,18.37
2018-05-12T22:02:17.332Z,18.27
2018-05-12T22:04:45.715Z,18.22
2018-05-12T22:07:14.111Z,18.02
2018-05-12T22:09:42.584Z,17.98
2018-05-12T22:12:10.932Z,17.94
2018-05-12T22:14:39.311Z,18.00
2018-05-12T22:17:07.673Z,17.87
2018-05-12T22:19:36.145Z,17.78
2018-05-12T22:22:04.558Z,17.79
2018-05-12T22:24:32.934Z,17.78
2018-05-12T22:27:01.543Z,17.71
2018-05-12T22:29:31.464Z,17.71
2018-05-12T22:31:59.879Z,17.63
2018-05-12T22:34:28.575Z,17.56
2018-05-12T22:37:01.176Z,17.51
2018-05-12T22:39:31.001Z,17.45
2018-05-12T22:42:00.708Z,17.39
2018-05-12T22:44:29.065Z,17.39
2018-05-12T22:46:57.419Z,17.33
2018-05-12T22:49:25.839Z,17.42
2018-05-12T22:51:55.591Z,17.42
2018-05-12T22:54:23.931Z,17.26
2018-05-12T22:56:52.359Z,17.17
2018-05-12T22:59:22.705Z,17.15
2018-05-12T23:01:51.151Z,17.14
2018-05-12T23:04:19.576Z,17.04
2018-05-12T23:06:48.024Z,17.12
2018-05-12T23:09:18.037Z,17.25
2018-05-12T23:11:49.880Z,17.25
2018-05-12T23:14:23.766Z,17.14
2018-05-12T23:16:52.204Z,17.07
2018-05-12T23:19:20.684Z,16.82
2018-05-12T23:21:49.059Z,16.87
2018-05-12T23:24:17.532Z,16.71
2018-05-12T23:26:45.953Z,16.64
2018-05-12T23:29:14.452Z,16.58
2018-05-12T23:31:42.846Z,16.63
2018-05-12T23:34:11.285Z,16.63
2018-05-12T23:36:39.696Z,16.58
2018-05-12T23:39:08.103Z,16.50
2018-05-12T23:41:36.479Z,16.41
2018-05-12T23:44:06.804Z,16.39
2018-05-12T23:46:35.240Z,16.41
2018-05-12T23:49:05.694Z,16.39
2018-05-12T23:51:37.740Z,16.38
2018-05-12T23:54:06.479Z,16.41
2018-05-12T23:56:34.843Z,16.28
2018-05-12T23:59:05.367Z,16.28
